METAR stanice u blizini

 

LYBE - Beograd / Surčin, Srbija
Ažurirano: 29/11/2021 15:30
Mostly Cloudy
Mostly Cloudy
 Pravac vetra ZSZ
Vetar: ZSZ 19 km/h
Temperatura: 5°C
Osećaj hladnoće: 1°C
Tačka rose: 3°C
Vlažnost: 87%
Pritisak: 1001 hPa
Oblaci: Mostly Cloudy
Vidljivost: 10 km
Cloud details: Mostly Cloudy 518 m
2021/11/29 14:30 LYBE 291430Z 29010KT 9999 BKN017 05/03 Q1001 NOSIG
LYBT - Beograd / Batajnica, Srbija
Ažurirano: 29/11/2021 15:30
Mostly Cloudy
Mostly Cloudy
 Pravac vetra SZ
Vetar: SZ 13 km/h
Temperatura: 5°C
Osećaj hladnoće: 2°C
Tačka rose: 2°C
Vlažnost: 81%
Pritisak: 1001 hPa
Oblaci: Mostly Cloudy
Vidljivost: 10 km
Cloud details: Partly Cloudy 518 m
Mostly Cloudy 762 m
2021/11/29 14:30 LYBT 291430Z 31007KT 9999 SCT017 BKN025 05/02 Q1001 NOSIG
LYVR - Vršac, Srbija
Ažurirano: 29/11/2021 15:30
Oblačno
Oblačno
 Pravac vetra SZ
Vetar: SZ 11 km/h
Temperatura: 5°C
Osećaj hladnoće: 2°C
Tačka rose: 2°C
Vlažnost: 81%
Pritisak: 1001 hPa
Oblaci: Oblačno
Vidljivost: 10 km
Cloud details: Oblačno 701 m
2021/11/29 14:30 LYVR 291430Z AUTO 31006KT 9999 OVC023/// 05/02 Q1001
 
LYKV - Lađevci, Srbija
Ažurirano: 29/11/2021 15:30
Slaba kiša, Pretežno oblačno
Slaba kiša, Pretežno oblačno
 Pravac vetra SI
Vetar: SI 7 km/h
Temperatura: 6°C
Osećaj hladnoće: 4°C
Tačka rose: 3°C
Vlažnost: 81%
Pritisak: 1000 hPa
Pregled: Light Rain
Oblaci: Mostly Cloudy
Vidljivost: 10 km
Cloud details: Partly Cloudy 457 m
Mostly Cloudy 823 m
2021/11/29 14:30 LYKV 291430Z 05004KT 360V100 9999 -RA SCT015 BKN027 06/03 Q1000 NOSIG
LYNI - Niš, Srbija
Ažurirano: 29/11/2021 15:30
Slaba kiša, Pretežno oblačno
Slaba kiša, Pretežno oblačno
 Pravac vetra varies
Vetar: varies 2 km/h
Temperatura: 6°C
Tačka rose: 6°C
Vlažnost: 100%
Pritisak: 1000 hPa
Pregled: Light Rain
Oblaci: Mostly Cloudy
Vidljivost: 10 km
Cloud details: Few Clouds 518 m
Mostly Cloudy 1006 m
2021/11/29 14:30 LYNI 291430Z VRB01KT 9999 -RA FEW017 BKN033 06/06 Q1000 NOSIG
BKPR - Priština, Srbija
Ažurirano: 29/11/2021 15:30
Mostly Cloudy
Mostly Cloudy
 Pravac vetra SSI
Vetar: SSI 7 km/h
Temperatura: 6°C
Osećaj hladnoće: 4°C
Tačka rose: 4°C
Vlažnost: 87%
Pritisak: 998 hPa
Oblaci: Mostly Cloudy
Vidljivost: 10 km
Cloud details: Partly Cloudy 762 m
Mostly Cloudy 1219 m
2021/11/29 14:30 BKPR 291430Z 02004KT 9999 SCT025 BKN040 06/04 Q0998 NOSIG
 
LHPP - Pecs / Pogany, Hungary
Ažurirano: 29/11/2021 15:15
Vedro
Vedro
 Pravac vetra SZ
Vetar: SZ 22 km/h
Temperatura: 3°C
Osećaj hladnoće: -2°C
Tačka rose: -2°C
Vlažnost: 70%
Pritisak: 1001 hPa
Pregled: Vedro
Vidljivost: greater than 10 km
2021/11/29 14:15 LHPP 291415Z AUTO 32012KT 290V350 CAVOK 03/M02 Q1001
LHUD - Szeged, Hungary
Ažurirano: 04/07/2019 01:45
NOT Current
Vedro
Vedro
 Pravac vetra S
Vetar: S 7 km/h
Temperatura: 18°C
Tačka rose: 13°C
Vlažnost: 73%
Pritisak: 1019 hPa
Pregled: Vedro
Vidljivost: greater than 10 km
2019/07/03 23:45 LHUD 032345Z 35004KT CAVOK 18/13 Q1019
LRTR - Timisoara, Romania
Ažurirano: 29/11/2021 15:30
Oblačno
Oblačno
 Pravac vetra ZSZ
Vetar: ZSZ 15 km/h
Temperatura: 4°C
Osećaj hladnoće: 1°C
Tačka rose: 1°C
Vlažnost: 81%
Pritisak: 1001 hPa
Oblaci: Oblačno
Vidljivost: 10 km
Cloud details: Oblačno 579 m
2021/11/29 14:30 LRTR 291430Z 30008KT 9999 OVC019 04/01 Q1001
 
LRCV - Craiova, Romania
Ažurirano: 29/11/2021 15:30
Vedro
Vedro
 Pravac vetra Z
Vetar: Z 20 km/h
Temperatura: 8°C
Osećaj hladnoće: 4°C
Tačka rose: 2°C
Vlažnost: 66%
Pritisak: 996 hPa
Pregled: Vedro
Vidljivost: greater than 10 km
2021/11/29 14:30 LRCV 291430Z 26011KT CAVOK 08/02 Q0996
LBSF - Sofia, Bulgaria
Ažurirano: 29/11/2021 15:30
Mostly Cloudy
Mostly Cloudy
 Pravac vetra JJI
Vetar: JJI 6 km/h
Temperatura: 5°C
Tačka rose: 4°C
Vlažnost: 93%
Pritisak: 999 hPa
Oblaci: Mostly Cloudy
Vidljivost: 10 km
Cloud details: Partly Cloudy 732 m
Partly Cloudy 884 m
Mostly Cloudy 1311 m
2021/11/29 14:30 LBSF 291430Z 16003KT 120V240 9999 SCT024 SCT029 BKN043 05/04 Q0999 TEMPO 5000 RA
LWSK - Skoplje, Makedonija
Ažurirano: 29/11/2021 15:30
Few Clouds
Few Clouds
 Pravac vetra SSI
Vetar: SSI 19 km/h
Temperatura: 11°C
Tačka rose: 7°C
Vlažnost: 77%
Pritisak: 998 hPa
Oblaci: Few Clouds
Vidljivost: 10 km
Cloud details: Few Clouds 1006 m
2021/11/29 14:30 LWSK 291430Z 02010KT 9999 FEW033 11/07 Q0998 NOSIG
 
LYPG - Podgorica, Crna Gora
Ažurirano: 29/11/2021 15:30
Slaba kiša, Showers, Pretežno oblačno
Slaba kiša, Showers, Pretežno oblačno
 Pravac vetra calm
Vetar: Tišina
Temperatura: 10°C
Tačka rose: 8°C
Vlažnost: 88%
Pritisak: 997 hPa
Pregled: Slaba kiša, Showers
Oblaci: Mostly Cloudy
Vidljivost: 10 km
Cloud details: Few Clouds 396 m
Partly Cloudy 792 m
Mostly Cloudy 1219 m
2021/11/29 14:30 LYPG 291430Z 00000KT 9999 -SHRA FEW013 SCT026TCU BKN040 10/08 Q0997 NOSIG
LQSA - Sarajevo, Bosna i Hercegovina
Ažurirano: 29/11/2021 15:30
Sneg, Oblačno
Sneg, Oblačno
 Pravac vetra ZSZ
Vetar: ZSZ 13 km/h
Temperatura: 0°C
Osećaj hladnoće: -4°C
Tačka rose: 0°C
Vlažnost: 100%
Pritisak: 998 hPa
Pregled: Sneg
Oblaci: Oblačno
Vidljivost: 1 km
Cloud details: Partly Cloudy 91 m
Mostly Cloudy 213 m
Oblačno 914 m
2021/11/29 14:30 LQSA 291430Z 29007KT 1200 SN SCT003 BKN007 OVC030 00/00 Q0998 NOSIG
LDOS - Osijek, Hrvatksa
Ažurirano: 29/11/2021 15:30
Vedro
Vedro
 Pravac vetra SZ
Vetar: SZ 15 km/h
Temperatura: 4°C
Osećaj hladnoće: 1°C
Tačka rose: 1°C
Vlažnost: 81%
Pritisak: 1001 hPa
Pregled: Vedro
Vidljivost: greater than 10 km
2021/11/29 14:30 LDOS 291430Z 31008KT CAVOK 04/01 Q1001